Time;durP1;ratioP1;P1;durP2;ratioP2;P2;SDS_P1;SDS_P2;PMS_P1;PMS_P2;Temp;Humidity;BMP_temperature;BMP_pressure;BME280_temperature;BME280_humidity;BME280_pressure;Samples;Min_cycle;Max_cycle;Signal;HPM_P1;HPM_P2
2021/04/22 00:02:18;;;;;;;9.33;8.53;;;11.00;83.00;;;;;;10542510;28;20381;-78
2021/04/22 00:07:21;;;;;;;11.20;9.53;;;10.90;83.20;;;;;;10524179;28;20215;-78
2021/04/22 00:12:22;;;;;;;11.20;10.10;;;10.90;83.10;;;;;;10540622;28;20219;-78
2021/04/22 00:17:24;;;;;;;10.60;9.70;;;10.90;83.00;;;;;;10542617;28;20671;-78
2021/04/22 00:22:26;;;;;;;10.63;9.73;;;11.00;83.50;;;;;;10542256;28;20215;-78
2021/04/22 00:27:28;;;;;;;10.87;9.40;;;11.00;83.70;;;;;;10540489;28;20222;-78
2021/04/22 00:32:30;;;;;;;10.80;9.70;;;11.10;83.70;;;;;;10541767;28;20614;-78
2021/04/22 00:37:32;;;;;;;9.87;9.00;;;11.20;83.60;;;;;;10542601;28;20675;-78
2021/04/22 00:42:34;;;;;;;10.67;9.67;;;11.30;83.40;;;;;;10541476;28;20184;-78
2021/04/22 00:47:36;;;;;;;9.03;8.23;;;11.40;84.30;;;;;;10539832;28;20295;-78
2021/04/22 00:52:39;;;;;;;11.00;10.00;;;11.40;83.60;;;;;;10541999;28;20219;-78
2021/04/22 00:57:41;;;;;;;11.60;10.47;;;11.50;83.90;;;;;;10537942;28;20677;-78
2021/04/22 01:02:43;;;;;;;11.10;10.10;;;11.60;83.40;;;;;;10531153;28;20192;-78
2021/04/22 01:07:46;;;;;;;12.13;10.90;;;11.80;86.30;;;;;;10539200;28;20269;-78
2021/04/22 01:12:48;;;;;;;11.83;10.83;;;11.80;90.10;;;;;;10540648;28;20480;-78
2021/04/22 01:17:50;;;;;;;13.80;12.67;;;11.80;91.30;;;;;;10539398;28;20762;-78
2021/04/22 01:22:54;;;;;;;16.20;14.70;;;11.60;93.10;;;;;;10536700;28;20190;-78
2021/04/22 01:27:56;;;;;;;16.77;14.97;;;11.30;95.00;;;;;;10537089;28;20605;-78
2021/04/22 01:32:58;;;;;;;18.10;16.33;;;11.10;96.20;;;;;;10537545;28;20250;-78
2021/04/22 01:38:02;;;;;;;18.77;16.87;;;10.90;98.70;;;;;;10537913;28;20290;-78
2021/04/22 01:43:05;;;;;;;18.50;16.80;;;10.90;99.90;;;;;;10535876;28;20241;-78
2021/04/22 01:48:07;;;;;;;18.60;16.80;;;10.80;99.90;;;;;;10535698;28;20306;-78
2021/04/22 01:53:10;;;;;;;19.80;18.10;;;10.80;99.90;;;;;;10534964;28;20233;-78
2021/04/22 01:58:14;;;;;;;21.47;19.47;;;10.80;99.90;;;;;;10517612;28;20299;-78
2021/04/22 02:03:16;;;;;;;20.37;18.30;;;10.90;99.90;;;;;;10535846;28;20233;-78
2021/04/22 02:08:19;;;;;;;19.90;17.90;;;10.80;99.90;;;;;;10530738;28;20224;-78
2021/04/22 02:13:24;;;;;;;20.50;18.40;;;10.90;99.90;;;;;;10535566;28;20770;-78
2021/04/22 02:18:26;;;;;;;19.23;17.30;;;10.90;99.90;;;;;;10536082;28;20255;-78
2021/04/22 02:23:29;;;;;;;22.27;20.30;;;10.90;99.90;;;;;;10535658;28;20234;-78
2021/04/22 02:28:31;;;;;;;22.80;20.60;;;10.90;99.90;;;;;;10500511;28;20284;-78
2021/04/22 02:33:32;;;;;;;26.50;23.87;;;10.90;99.90;;;;;;10519994;28;20227;-78
2021/04/22 02:38:35;;;;;;;29.87;26.87;;;10.90;99.90;;;;;;10537517;28;20694;-78
2021/04/22 02:43:37;;;;;;;32.30;29.20;;;10.90;99.90;;;;;;10541457;28;20223;-78
2021/04/22 02:48:38;;;;;;;33.20;29.80;;;11.00;99.90;;;;;;10542766;28;20227;-78
2021/04/22 02:53:41;;;;;;;33.17;29.77;;;11.10;99.90;;;;;;10529259;28;20223;-78
2021/04/22 02:58:42;;;;;;;34.43;30.97;;;11.20;99.90;;;;;;10541603;28;20215;-78
2021/04/22 03:03:44;;;;;;;31.17;28.10;;;11.20;99.90;;;;;;10540733;28;20207;-78
2021/04/22 03:08:46;;;;;;;32.13;28.80;;;11.30;99.90;;;;;;10506126;28;20712;-78
2021/04/22 03:13:48;;;;;;;33.17;29.67;;;11.30;99.90;;;;;;10540661;28;20249;-78
2021/04/22 03:18:49;;;;;;;34.27;30.77;;;11.40;99.90;;;;;;10540458;28;20224;-78
2021/04/22 03:23:52;;;;;;;31.07;27.87;;;11.50;99.90;;;;;;10539940;28;20291;-78
2021/04/22 03:28:54;;;;;;;30.23;27.23;;;11.50;99.90;;;;;;10530188;22;20224;-81
2021/04/22 03:33:56;;;;;;;28.73;25.87;;;11.60;99.90;;;;;;10485219;28;20299;-82
2021/04/22 03:38:58;;;;;;;27.07;24.47;;;11.60;99.90;;;;;;10485927;28;20221;-81
2021/04/22 03:44:00;;;;;;;26.53;23.83;;;11.70;99.90;;;;;;10486807;28;20239;-80
2021/04/22 03:49:01;;;;;;;19.40;17.03;;;11.70;99.90;;;;;;10472295;28;20216;-82
2021/04/22 03:54:05;;;;;;;23.10;20.70;;;11.70;99.90;;;;;;10471786;28;20246;-82
2021/04/22 03:59:07;;;;;;;23.83;21.33;;;11.70;99.90;;;;;;10500767;28;20212;-80
2021/04/22 04:04:09;;;;;;;22.93;20.70;;;11.70;99.90;;;;;;10445851;28;20643;-82
2021/04/22 04:09:11;;;;;;;22.93;20.67;;;11.60;99.90;;;;;;10429198;28;20309;-79
2021/04/22 04:14:13;;;;;;;24.67;22.17;;;11.60;99.90;;;;;;10465821;28;20224;-81
2021/04/22 04:19:14;;;;;;;24.07;21.47;;;11.50;99.90;;;;;;10458094;28;20236;-81
2021/04/22 04:24:17;;;;;;;23.00;20.67;;;11.50;99.90;;;;;;10439667;28;20623;-79
2021/04/22 04:29:18;;;;;;;23.13;21.03;;;11.40;99.90;;;;;;10422467;28;20715;-79
2021/04/22 04:34:20;;;;;;;23.20;20.90;;;11.30;99.90;;;;;;10438677;28;20321;-79
2021/04/22 04:39:22;;;;;;;24.27;21.90;;;11.30;99.90;;;;;;10439039;28;20232;-79
2021/04/22 04:44:24;;;;;;;23.33;21.03;;;11.20;99.90;;;;;;10439146;28;20192;-83
2021/04/22 04:49:26;;;;;;;23.60;21.30;;;11.20;99.90;;;;;;10436680;28;20220;-81
2021/04/22 04:54:28;;;;;;;23.50;21.03;;;11.20;99.90;;;;;;10460114;28;20300;-79
2021/04/22 04:59:30;;;;;;;24.10;21.80;;;11.20;99.90;;;;;;10458203;28;20291;-81
2021/04/22 05:04:32;;;;;;;23.53;21.23;;;11.20;99.90;;;;;;10440953;28;20695;-80
2021/04/22 05:09:35;;;;;;;25.37;22.77;;;11.20;99.70;;;;;;10442299;28;20236;-80
2021/04/22 05:14:36;;;;;;;24.83;22.33;;;11.20;99.90;;;;;;10438458;28;20221;-80
2021/04/22 05:19:38;;;;;;;25.87;23.17;;;11.20;99.90;;;;;;10437875;28;20288;-80
2021/04/22 05:24:41;;;;;;;24.03;21.73;;;11.30;99.90;;;;;;10455076;28;20568;-81
2021/04/22 05:29:42;;;;;;;23.47;21.03;;;11.30;99.90;;;;;;10455762;28;20783;-80
2021/04/22 05:34:44;;;;;;;23.50;21.00;;;11.50;99.90;;;;;;10437293;28;20711;-81
2021/04/22 05:39:46;;;;;;;22.93;20.77;;;11.60;99.80;;;;;;10420878;28;20712;-83
2021/04/22 05:44:48;;;;;;;22.10;20.03;;;11.70;99.60;;;;;;10437028;28;20635;-82
2021/04/22 05:49:49;;;;;;;21.97;19.60;;;11.70;98.90;;;;;;10456147;28;20244;-81
2021/04/22 05:54:52;;;;;;;22.27;20.17;;;11.80;98.50;;;;;;10437701;28;20243;-82
2021/04/22 05:59:54;;;;;;;21.90;19.87;;;11.90;98.50;;;;;;10454733;28;20287;-81
2021/04/22 06:04:55;;;;;;;22.63;20.20;;;12.00;98.20;;;;;;10438566;28;20614;-82
2021/04/22 06:09:58;;;;;;;20.80;18.60;;;12.10;97.80;;;;;;10462532;28;20297;-82
2021/04/22 06:14:59;;;;;;;22.00;19.57;;;12.00;97.50;;;;;;10445716;28;20628;-80
2021/04/22 06:20:02;;;;;;;21.27;19.23;;;12.10;97.00;;;;;;10445544;28;20300;-82
2021/04/22 06:25:06;;;;;;;21.33;19.20;;;12.10;96.80;;;;;;10445643;28;20194;-80
2021/04/22 06:30:09;;;;;;;22.53;20.13;;;12.20;96.70;;;;;;10448403;28;20224;-81
2021/04/22 06:35:13;;;;;;;20.30;18.10;;;12.10;96.20;;;;;;10435342;28;20221;-82
2021/04/22 06:40:19;;;;;;;21.43;18.67;;;12.10;96.20;;;;;;10471633;28;20220;-83
2021/04/22 06:45:21;;;;;;;20.87;18.57;;;12.10;96.50;;;;;;10455235;28;20189;-83
2021/04/22 06:50:26;;;;;;;19.07;17.20;;;12.10;95.50;;;;;;10456922;28;20213;-82
2021/04/22 06:55:33;;;;;;;19.83;17.77;;;12.20;95.90;;;;;;10464897;28;20259;-81
2021/04/22 07:00:37;;;;;;;19.30;17.30;;;12.20;94.80;;;;;;10479881;28;20222;-81
2021/04/22 07:05:39;;;;;;;18.27;16.37;;;12.20;94.80;;;;;;10468452;28;20182;-81
2021/04/22 07:10:45;;;;;;;21.10;16.57;;;12.20;94.40;;;;;;10467206;28;20228;-80
2021/04/22 07:15:46;;;;;;;18.90;16.40;;;12.40;94.50;;;;;;10476329;28;20193;-81
2021/04/22 07:20:48;;;;;;;17.43;15.70;;;12.50;94.20;;;;;;10479096;28;20237;-83
2021/04/22 07:25:51;;;;;;;19.60;16.33;;;12.70;93.60;;;;;;10467450;28;20197;-83
2021/04/22 07:30:53;;;;;;;18.10;16.27;;;12.80;93.60;;;;;;10456806;28;20224;-83
2021/04/22 07:35:54;;;;;;;18.30;14.87;;;13.00;93.40;;;;;;10448386;28;20879;-80
2021/04/22 07:40:57;;;;;;;18.17;16.27;;;13.10;92.70;;;;;;10468085;28;20216;-82
2021/04/22 07:45:59;;;;;;;15.60;14.00;;;13.30;92.10;;;;;;10453489;28;20204;-83
2021/04/22 07:51:01;;;;;;;16.97;14.87;;;13.50;92.10;;;;;;10472060;28;20224;-83
2021/04/22 07:56:04;;;;;;;17.63;14.90;;;13.40;91.20;;;;;;10456802;28;20254;-83
2021/04/22 08:01:06;;;;;;;17.23;13.20;;;13.30;90.90;;;;;;10494654;28;20209;-82
2021/04/22 08:06:07;;;;;;;14.67;13.13;;;13.30;91.00;;;;;;10511914;28;20245;-83
2021/04/22 08:11:11;;;;;;;15.60;13.63;;;13.30;90.60;;;;;;10478324;28;20216;-83
2021/04/22 08:16:13;;;;;;;13.97;12.57;;;13.50;90.90;;;;;;10478450;28;20230;-82
2021/04/22 08:21:14;;;;;;;17.20;12.83;;;13.80;89.90;;;;;;10483056;28;20224;-82
2021/04/22 08:26:19;;;;;;;15.10;13.53;;;14.00;88.20;;;;;;10487621;28;20204;-83
2021/04/22 08:31:23;;;;;;;13.40;11.67;;;14.00;88.00;;;;;;10499259;28;20222;-82
2021/04/22 08:36:26;;;;;;;14.37;11.00;;;14.00;87.20;;;;;;10492048;28;20679;-83
2021/04/22 08:41:29;;;;;;;11.93;10.73;;;14.20;86.00;;;;;;10492522;28;20212;-83
2021/04/22 08:46:31;;;;;;;14.23;12.73;;;14.40;85.20;;;;;;10492094;28;20200;-83
2021/04/22 08:51:33;;;;;;;13.53;12.13;;;14.50;83.90;;;;;;10496232;28;20216;-83
2021/04/22 08:56:37;;;;;;;11.80;10.27;;;14.70;83.60;;;;;;10491179;28;20197;-83
2021/04/22 09:01:40;;;;;;;17.23;10.50;;;14.80;82.60;;;;;;10510308;28;20216;-83
2021/04/22 09:06:42;;;;;;;13.40;11.50;;;15.00;80.30;;;;;;10478854;28;20250;-82
2021/04/22 09:11:46;;;;;;;14.47;10.80;;;15.10;78.60;;;;;;10476608;28;20220;-82
2021/04/22 09:16:49;;;;;;;11.80;10.60;;;15.20;78.10;;;;;;10478527;28;20605;-83
2021/04/22 09:21:54;;;;;;;11.17;10.03;;;15.50;76.00;;;;;;10479409;28;20292;-83
2021/04/22 09:27:01;;;;;;;11.63;10.43;;;15.80;76.00;;;;;;10497061;28;20196;-83
2021/04/22 09:32:12;;;;;;;11.73;10.03;;;16.00;74.90;;;;;;10468983;22;20589;-79
2021/04/22 09:37:14;;;;;;;12.03;10.73;;;15.90;73.70;;;;;;10452803;28;20228;-79
2021/04/22 09:42:19;;;;;;;11.70;9.60;;;16.10;74.30;;;;;;10452504;28;20236;-79
2021/04/22 09:47:23;;;;;;;10.83;7.97;;;16.40;72.00;;;;;;10453166;28;20204;-79
2021/04/22 09:52:30;;;;;;;11.20;8.83;;;16.70;71.40;;;;;;10453258;28;20213;-79
2021/04/22 09:57:35;;;;;;;14.07;8.80;;;17.00;69.30;;;;;;10453185;28;20189;-79
2021/04/22 10:02:44;;;;;;;8.23;6.90;;;17.20;64.40;;;;;;10451726;28;20192;-79
2021/04/22 10:07:46;;;;;;;8.40;6.90;;;17.20;65.60;;;;;;10451916;28;20704;-79
2021/04/22 10:12:50;;;;;;;8.40;6.93;;;17.40;63.40;;;;;;10448585;28;20221;-79
2021/04/22 10:17:54;;;;;;;10.40;7.30;;;17.30;61.50;;;;;;10442606;28;20221;-79
2021/04/22 10:22:55;;;;;;;10.60;6.80;;;17.00;59.40;;;;;;10427842;28;20297;-79
2021/04/22 10:28:04;;;;;;;7.70;6.50;;;16.70;60.30;;;;;;10445810;28;20304;-79
2021/04/22 10:33:07;;;;;;;7.13;5.93;;;16.40;59.90;;;;;;10444178;28;20221;-79
2021/04/22 10:38:14;;;;;;;11.43;6.77;;;16.10;58.30;;;;;;10444496;28;20304;-79
2021/04/22 10:43:22;;;;;;;7.57;6.17;;;15.80;58.70;;;;;;10445262;28;20248;-79
2021/04/22 10:48:24;;;;;;;6.33;4.70;;;15.60;59.10;;;;;;10444870;28;20308;-79
2021/04/22 10:53:26;;;;;;;6.30;4.23;;;15.50;56.10;;;;;;10427555;28;20220;-79
2021/04/22 10:58:32;;;;;;;4.30;4.00;;;15.40;52.80;;;;;;10464720;28;20225;-79
2021/04/22 11:03:38;;;;;;;4.73;4.33;;;15.30;53.50;;;;;;10451347;28;20194;-79
2021/04/22 11:08:59;;;;;;;5.40;4.90;;;15.20;54.70;;;;;;10451133;28;20213;-79
2021/04/22 11:14:06;;;;;;;5.50;4.33;;;15.10;53.40;;;;;;10451034;28;20237;-79
2021/04/22 11:19:16;;;;;;;7.33;4.30;;;15.10;50.20;;;;;;10451707;28;20209;-79
2021/04/22 11:24:28;;;;;;;4.70;4.30;;;15.10;50.80;;;;;;10451808;28;20193;-79
2021/04/22 11:29:41;;;;;;;4.50;4.10;;;15.00;49.70;;;;;;10441688;28;20315;-79
2021/04/22 11:34:43;;;;;;;8.03;5.13;;;14.80;52.20;;;;;;10447689;28;20221;-79
2021/04/22 11:39:44;;;;;;;4.60;3.90;;;14.70;50.80;;;;;;10433453;28;20247;-79
2021/04/22 11:44:50;;;;;;;6.13;4.47;;;14.60;49.10;;;;;;10466521;28;20660;-79
2021/04/22 11:50:12;;;;;;;10.40;4.80;;;14.50;48.90;;;;;;10450417;28;20213;-79
2021/04/22 11:55:17;;;;;;;5.43;3.97;;;14.40;49.30;;;;;;10432481;28;20428;-79
2021/04/22 12:00:22;;;;;;;5.53;4.33;;;14.30;49.90;;;;;;10448509;28;20247;-79
2021/04/22 12:05:25;;;;;;;6.43;4.27;;;14.20;49.70;;;;;;10448196;28;20766;-79
2021/04/22 12:10:29;;;;;;;4.23;3.83;;;14.10;50.40;;;;;;10447680;28;20225;-79
2021/04/22 12:15:35;;;;;;;4.63;4.17;;;14.10;49.90;;;;;;10431870;28;20681;-79
2021/04/22 12:20:38;;;;;;;4.60;3.70;;;14.10;49.70;;;;;;10447372;28;20241;-79
2021/04/22 12:25:41;;;;;;;5.23;4.33;;;14.10;49.10;;;;;;10429841;28;20200;-79
2021/04/22 12:30:46;;;;;;;4.73;4.10;;;14.10;50.00;;;;;;10430184;28;20233;-79
2021/04/22 12:35:53;;;;;;;5.70;4.10;;;14.20;51.70;;;;;;10446874;28;20221;-79
2021/04/22 12:40:57;;;;;;;6.23;4.43;;;14.20;51.90;;;;;;10447289;28;20320;-78
2021/04/22 12:46:08;;;;;;;8.40;4.03;;;14.30;51.90;;;;;;10462938;28;20197;-78
2021/04/22 12:51:11;;;;;;;4.70;4.20;;;14.30;53.60;;;;;;10430307;28;20225;-78
2021/04/22 12:56:15;;;;;;;5.00;4.50;;;14.30;50.70;;;;;;10447193;28;20287;-78
2021/04/22 13:01:20;;;;;;;5.80;4.33;;;14.40;50.80;;;;;;10448462;28;20554;-78
2021/04/22 13:06:24;;;;;;;5.10;4.60;;;14.40;51.10;;;;;;10450240;28;20208;-78
2021/04/22 13:11:29;;;;;;;8.53;4.20;;;14.40;50.50;;;;;;10459588;28;20219;-78
2021/04/22 13:16:42;;;;;;;4.77;4.37;;;14.40;51.40;;;;;;10448922;28;20209;-79
2021/04/22 13:21:49;;;;;;;6.47;4.17;;;14.40;48.90;;;;;;10452828;28;20249;-79
2021/04/22 13:27:06;;;;;;;4.60;3.70;;;14.50;50.00;;;;;;10452379;28;20201;-79
2021/04/22 13:32:09;;;;;;;7.20;3.57;;;14.50;50.50;;;;;;10451497;28;20576;-79
2021/04/22 13:37:12;;;;;;;4.13;3.53;;;14.50;48.70;;;;;;10455000;28;20200;-79
2021/04/22 13:42:23;;;;;;;7.50;3.87;;;14.60;50.30;;;;;;10453619;28;20220;-79
2021/04/22 13:47:26;;;;;;;3.10;2.80;;;14.60;46.40;;;;;;10452123;28;20205;-78
2021/04/22 13:52:28;;;;;;;3.23;3.03;;;14.70;43.90;;;;;;10450882;28;20225;-78
2021/04/22 13:57:31;;;;;;;3.67;3.37;;;14.80;42.90;;;;;;10451344;28;20239;-78
2021/04/22 14:02:39;;;;;;;2.93;2.60;;;14.80;42.20;;;;;;10444343;28;20668;-78
2021/04/22 14:07:47;;;;;;;6.30;3.10;;;14.80;43.60;;;;;;10444710;28;20224;-78
2021/04/22 14:12:48;;;;;;;6.50;3.03;;;14.90;40.70;;;;;;10445986;28;20220;-78
2021/04/22 14:17:52;;;;;;;3.63;2.77;;;14.90;41.60;;;;;;10444981;28;20244;-78
2021/04/22 14:22:53;;;;;;;2.53;2.40;;;14.90;47.00;;;;;;10445128;28;20577;-78
2021/04/22 14:27:55;;;;;;;3.97;2.80;;;14.90;44.20;;;;;;10443428;28;20315;-78
2021/04/22 14:32:57;;;;;;;4.57;3.30;;;15.00;43.10;;;;;;10450893;28;20736;-78
2021/04/22 14:37:59;;;;;;;3.90;3.00;;;15.30;41.20;;;;;;10434267;28;20247;-78
2021/04/22 14:43:02;;;;;;;6.90;3.20;;;15.40;41.30;;;;;;10429792;28;20229;-78
2021/04/22 14:48:05;;;;;;;4.90;2.60;;;15.40;39.60;;;;;;10453320;28;20819;-78
2021/04/22 14:53:07;;;;;;;2.77;2.37;;;15.30;39.30;;;;;;10433776;28;20236;-78
2021/04/22 14:58:09;;;;;;;5.07;2.70;;;15.30;39.70;;;;;;10450891;28;20315;-78
2021/04/22 15:03:12;;;;;;;3.83;2.20;;;15.20;41.20;;;;;;10447239;28;20201;-78
2021/04/22 15:08:15;;;;;;;3.20;2.50;;;15.20;39.80;;;;;;10451744;28;20221;-78
2021/04/22 15:13:17;;;;;;;2.80;2.60;;;15.20;39.50;;;;;;10451839;28;20221;-78
2021/04/22 15:18:21;;;;;;;5.53;3.10;;;15.20;38.90;;;;;;10450303;28;20248;-79
2021/04/22 15:23:23;;;;;;;3.57;2.40;;;15.20;39.20;;;;;;10448703;28;20259;-78
2021/04/22 15:28:28;;;;;;;4.93;2.43;;;15.10;38.30;;;;;;10469819;22;20228;-81
2021/04/22 15:33:31;;;;;;;4.60;2.60;;;15.20;38.90;;;;;;10502852;28;20216;-82
2021/04/22 15:38:33;;;;;;;3.57;2.73;;;15.40;38.10;;;;;;10502775;28;20231;-82
2021/04/22 15:43:35;;;;;;;3.50;2.33;;;15.70;38.10;;;;;;10513305;28;20192;-82
2021/04/22 15:48:37;;;;;;;3.27;2.17;;;15.70;38.10;;;;;;10494533;28;20310;-83
2021/04/22 15:53:42;;;;;;;3.47;3.17;;;15.70;37.80;;;;;;10511670;28;20224;-82
2021/04/22 15:58:48;;;;;;;2.90;2.60;;;15.60;39.50;;;;;;10500122;28;20220;-82
2021/04/22 16:03:51;;;;;;;5.03;2.90;;;15.50;40.20;;;;;;10519887;28;20211;-82
2021/04/22 16:08:53;;;;;;;7.13;3.80;;;15.40;38.80;;;;;;10519370;28;20228;-82
2021/04/22 16:13:55;;;;;;;5.80;3.13;;;15.30;39.20;;;;;;10509224;28;20267;-83
2021/04/22 16:18:57;;;;;;;4.50;2.67;;;15.30;38.60;;;;;;10491604;28;20606;-82
2021/04/22 16:23:59;;;;;;;4.93;3.10;;;15.20;40.40;;;;;;10506066;28;20337;-81
2021/04/22 16:29:01;;;;;;;5.20;2.90;;;15.10;39.60;;;;;;10500200;28;20699;-82
2021/04/22 16:34:04;;;;;;;3.17;2.83;;;15.10;40.50;;;;;;10508015;28;20307;-82
2021/04/22 16:39:08;;;;;;;4.93;2.80;;;15.00;41.40;;;;;;10494799;28;20638;-82
2021/04/22 16:44:10;;;;;;;7.13;3.50;;;15.00;40.90;;;;;;10497315;28;20656;-80
2021/04/22 16:49:14;;;;;;;5.30;3.30;;;14.90;41.40;;;;;;10499469;28;20228;-80
2021/04/22 16:54:17;;;;;;;6.40;3.00;;;14.90;40.60;;;;;;10496820;28;20228;-81
2021/04/22 16:59:19;;;;;;;4.73;2.70;;;14.80;40.90;;;;;;10484102;28;20224;-82
2021/04/22 17:04:25;;;;;;;4.00;3.13;;;14.80;42.40;;;;;;10511681;28;20308;-82
2021/04/22 17:09:27;;;;;;;8.70;3.60;;;14.80;43.20;;;;;;10516570;28;20224;-81
2021/04/22 17:14:28;;;;;;;4.50;3.30;;;14.70;41.70;;;;;;10509621;28;20596;-82
2021/04/22 17:19:31;;;;;;;5.00;3.60;;;14.60;44.20;;;;;;10479208;28;20259;-81
2021/04/22 17:24:33;;;;;;;3.37;3.07;;;14.60;41.50;;;;;;10496555;28;20279;-81
2021/04/22 17:29:34;;;;;;;3.87;2.90;;;14.50;42.10;;;;;;10495061;28;20231;-80
2021/04/22 17:34:37;;;;;;;3.40;3.10;;;14.40;42.20;;;;;;10479245;28;20741;-81
2021/04/22 17:39:39;;;;;;;3.93;3.10;;;14.40;43.90;;;;;;10495478;28;20243;-82
2021/04/22 17:44:41;;;;;;;4.40;3.03;;;14.30;41.10;;;;;;10495367;28;20200;-82
2021/04/22 17:49:45;;;;;;;4.47;3.40;;;14.30;42.80;;;;;;10495337;28;20228;-82
2021/04/22 17:54:47;;;;;;;3.33;3.10;;;14.20;39.20;;;;;;10501515;28;20719;-82
2021/04/22 17:59:48;;;;;;;3.20;2.80;;;14.20;39.90;;;;;;10508587;28;20220;-79
2021/04/22 18:04:51;;;;;;;4.63;2.80;;;14.10;41.10;;;;;;10516908;28;20266;-83
2021/04/22 18:09:59;;;;;;;2.70;2.47;;;14.00;38.70;;;;;;10524700;28;20712;-80
2021/04/22 18:15:00;;;;;;;3.37;3.07;;;14.00;40.40;;;;;;10521053;28;20224;-82
2021/04/22 18:20:05;;;;;;;5.80;3.23;;;13.90;43.30;;;;;;10521742;28;20216;-82
2021/04/22 18:25:09;;;;;;;3.73;2.87;;;13.80;44.70;;;;;;10509526;28;20193;-82
2021/04/22 18:30:19;;;;;;;5.10;3.60;;;13.70;45.50;;;;;;10494745;28;20228;-82
2021/04/22 18:35:27;;;;;;;3.50;3.20;;;13.60;43.10;;;;;;10502170;28;20216;-82
2021/04/22 18:40:30;;;;;;;5.43;3.17;;;13.50;44.20;;;;;;10519801;28;20220;-82
2021/04/22 18:45:41;;;;;;;4.40;2.80;;;13.40;43.70;;;;;;10499209;28;20201;-81
2021/04/22 18:50:44;;;;;;;5.10;3.07;;;13.40;44.30;;;;;;10482890;28;20224;-81
2021/04/22 18:55:45;;;;;;;12.83;6.53;;;13.30;42.70;;;;;;10503107;28;20220;-82
2021/04/22 19:00:49;;;;;;;6.30;4.63;;;13.30;42.50;;;;;;10500613;28;20223;-83
2021/04/22 19:05:53;;;;;;;3.70;3.20;;;13.20;42.00;;;;;;10499571;28;20214;-81
2021/04/22 19:10:56;;;;;;;7.53;3.33;;;13.10;43.10;;;;;;10483994;28;20326;-81
2021/04/22 19:16:00;;;;;;;4.17;2.97;;;13.00;43.60;;;;;;10508441;28;20236;-82
2021/04/22 19:21:03;;;;;;;4.80;2.77;;;13.00;45.00;;;;;;10507594;28;20225;-83
2021/04/22 19:26:04;;;;;;;4.87;3.60;;;12.90;45.40;;;;;;10523861;28;20208;-83
2021/04/22 19:31:07;;;;;;;6.00;3.40;;;12.90;44.90;;;;;;10509220;28;20583;-82
2021/04/22 19:36:10;;;;;;;6.20;3.37;;;12.90;44.20;;;;;;10501359;28;20224;-80
2021/04/22 19:41:13;;;;;;;4.50;2.70;;;12.80;44.50;;;;;;10500267;28;20229;-81
2021/04/22 19:46:16;;;;;;;3.93;3.10;;;12.70;44.20;;;;;;10506766;28;20195;-81
2021/04/22 19:51:18;;;;;;;4.60;2.90;;;12.70;45.60;;;;;;10487933;28;20224;-81
2021/04/22 19:56:21;;;;;;;3.40;3.07;;;12.60;44.20;;;;;;10473095;28;20307;-81
2021/04/22 20:01:24;;;;;;;3.30;2.70;;;12.60;43.30;;;;;;10490884;28;20319;-81
2021/04/22 20:06:28;;;;;;;4.23;2.80;;;12.50;43.80;;;;;;10458780;28;20201;-82
2021/04/22 20:11:31;;;;;;;3.10;2.80;;;12.40;44.10;;;;;;10485589;28;20220;-82
2021/04/22 20:16:33;;;;;;;4.83;3.03;;;12.40;41.90;;;;;;10490037;28;20247;-82
2021/04/22 20:21:36;;;;;;;3.33;3.00;;;12.30;43.30;;;;;;10491299;28;20255;-81
2021/04/22 20:26:37;;;;;;;4.67;2.80;;;12.30;44.70;;;;;;10491792;28;20211;-81
2021/04/22 20:31:39;;;;;;;4.27;3.57;;;12.20;43.70;;;;;;10491008;28;20236;-81
2021/04/22 20:36:42;;;;;;;6.87;3.90;;;12.10;45.60;;;;;;10476580;28;20229;-81
2021/04/22 20:41:46;;;;;;;6.53;3.47;;;11.90;46.00;;;;;;10491439;28;20225;-81
2021/04/22 20:46:50;;;;;;;5.13;3.30;;;11.70;47.10;;;;;;10489243;28;20207;-81
2021/04/22 20:51:52;;;;;;;4.90;3.30;;;11.40;47.70;;;;;;10472555;28;20250;-80
2021/04/22 20:56:54;;;;;;;3.80;3.30;;;11.20;48.00;;;;;;10490550;28;20228;-80
2021/04/22 21:01:56;;;;;;;6.00;3.57;;;11.00;48.00;;;;;;10455678;28;20224;-81
2021/04/22 21:06:59;;;;;;;10.47;4.83;;;10.80;48.30;;;;;;10486659;28;20672;-81
2021/04/22 21:12:05;;;;;;;5.27;3.30;;;10.70;48.40;;;;;;10486677;28;20307;-81
2021/04/22 21:17:08;;;;;;;2.80;2.60;;;10.50;48.00;;;;;;10487587;28;20729;-80
2021/04/22 21:22:10;;;;;;;5.03;3.00;;;10.40;48.90;;;;;;10485388;28;20228;-79
2021/04/22 21:27:15;;;;;;;4.43;3.17;;;10.20;49.00;;;;;;10468721;28;20432;-80
2021/04/22 21:32:19;;;;;;;4.70;3.80;;;10.10;49.10;;;;;;10448352;22;20252;-77
2021/04/22 21:37:24;;;;;;;3.40;3.00;;;9.90;50.10;;;;;;10440795;28;20250;-77
2021/04/22 21:42:27;;;;;;;3.47;3.17;;;9.80;50.30;;;;;;10441845;28;20228;-77
2021/04/22 21:47:29;;;;;;;6.70;3.80;;;9.70;50.50;;;;;;10419366;28;20193;-77
2021/04/22 21:52:31;;;;;;;6.03;3.10;;;9.60;51.00;;;;;;10440448;28;20292;-76
2021/04/22 21:57:33;;;;;;;3.47;2.90;;;9.60;51.20;;;;;;10439832;28;20208;-77
2021/04/22 22:02:35;;;;;;;5.90;3.43;;;9.50;51.20;;;;;;10439619;28;20715;-77
2021/04/22 22:07:37;;;;;;;4.93;3.00;;;9.40;51.50;;;;;;10441165;28;20228;-77
2021/04/22 22:12:39;;;;;;;5.20;2.83;;;9.30;51.50;;;;;;10439376;28;20224;-77
2021/04/22 22:17:41;;;;;;;3.40;2.80;;;9.30;52.20;;;;;;10441781;28;20209;-76
2021/04/22 22:22:46;;;;;;;6.17;3.40;;;9.30;52.50;;;;;;10433406;28;20232;-76
2021/04/22 22:27:49;;;;;;;4.33;3.93;;;9.20;52.60;;;;;;10444975;28;20209;-77
2021/04/22 22:32:52;;;;;;;6.50;3.40;;;9.10;53.00;;;;;;10440414;28;20236;-76
2021/04/22 22:37:54;;;;;;;29.60;22.10;;;9.10;53.30;;;;;;10438777;28;20645;-76
2021/04/22 22:42:57;;;;;;;4.00;3.50;;;9.10;53.60;;;;;;10440918;28;20222;-76
2021/04/22 22:47:59;;;;;;;4.97;3.60;;;9.10;53.80;;;;;;10445306;28;20565;-77
2021/04/22 22:53:01;;;;;;;4.50;2.73;;;9.00;53.90;;;;;;10441628;28;20217;-76
2021/04/22 22:58:05;;;;;;;6.03;2.70;;;8.90;54.50;;;;;;10449190;28;20216;-77
2021/04/22 23:03:08;;;;;;;5.43;3.10;;;8.90;54.90;;;;;;10449437;28;20235;-76
2021/04/22 23:08:12;;;;;;;7.57;2.67;;;8.90;55.00;;;;;;10445956;28;20415;-77
2021/04/22 23:13:15;;;;;;;21.07;15.13;;;8.90;55.20;;;;;;10451710;28;20240;-77
2021/04/22 23:18:17;;;;;;;4.13;2.60;;;8.90;55.40;;;;;;10456745;28;20576;-76
2021/04/22 23:23:19;;;;;;;9.00;3.33;;;8.90;55.50;;;;;;10455199;28;20229;-76
2021/04/22 23:28:22;;;;;;;6.73;3.43;;;8.80;56.20;;;;;;10456558;28;20292;-77
2021/04/22 23:33:24;;;;;;;3.57;3.27;;;8.70;55.90;;;;;;10457099;28;20237;-76
2021/04/22 23:38:27;;;;;;;4.80;3.23;;;8.60;56.20;;;;;;10455713;28;20664;-76
2021/04/22 23:43:32;;;;;;;8.33;3.70;;;8.60;56.20;;;;;;10454810;28;20271;-76
2021/04/22 23:48:34;;;;;;;5.97;2.80;;;8.60;57.00;;;;;;10455184;28;20224;-76
2021/04/22 23:53:39;;;;;;;5.20;3.40;;;8.60;56.90;;;;;;10455496;28;20223;-76
2021/04/22 23:58:40;;;;;;;3.97;2.90;;;8.60;56.80;;;;;;10454965;28;20750;-76
